sensor_id;sensor_type;location;lat;lon;timestamp;P1;durP1;ratioP1;P2;durP2;ratioP2
35306;SDS011;21420;52.196;21.416;2023-06-14T00:02:26;11.00;;;6.40;;
35306;SDS011;21420;52.196;21.416;2023-06-14T00:04:53;7.50;;;6.10;;
35306;SDS011;21420;52.196;21.416;2023-06-14T00:07:21;7.10;;;6.20;;
35306;SDS011;21420;52.196;21.416;2023-06-14T00:10:00;9.30;;;6.20;;
35306;SDS011;21420;52.196;21.416;2023-06-14T00:12:27;10.90;;;6.20;;
35306;SDS011;21420;52.196;21.416;2023-06-14T00:14:54;8.90;;;6.50;;
35306;SDS011;21420;52.196;21.416;2023-06-14T00:17:21;9.10;;;6.60;;
35306;SDS011;21420;52.196;21.416;2023-06-14T00:19:49;8.60;;;7.10;;
35306;SDS011;21420;52.196;21.416;2023-06-14T00:22:16;8.70;;;6.40;;
35306;SDS011;21420;52.196;21.416;2023-06-14T00:24:42;6.90;;;6.20;;
35306;SDS011;21420;52.196;21.416;2023-06-14T00:27:09;9.20;;;7.60;;
35306;SDS011;21420;52.196;21.416;2023-06-14T00:29:37;7.60;;;6.80;;
35306;SDS011;21420;52.196;21.416;2023-06-14T00:32:04;8.50;;;7.50;;
35306;SDS011;21420;52.196;21.416;2023-06-14T00:34:31;8.10;;;6.90;;
35306;SDS011;21420;52.196;21.416;2023-06-14T00:36:57;7.00;;;6.30;;
35306;SDS011;21420;52.196;21.416;2023-06-14T00:39:24;8.10;;;7.20;;
35306;SDS011;21420;52.196;21.416;2023-06-14T00:41:51;7.30;;;6.50;;
35306;SDS011;21420;52.196;21.416;2023-06-14T00:44:19;10.00;;;6.80;;
35306;SDS011;21420;52.196;21.416;2023-06-14T00:46:46;9.90;;;7.40;;
35306;SDS011;21420;52.196;21.416;2023-06-14T00:49:14;8.80;;;7.80;;
35306;SDS011;21420;52.196;21.416;2023-06-14T00:51:42;8.70;;;7.20;;
35306;SDS011;21420;52.196;21.416;2023-06-14T00:54:09;8.10;;;6.30;;
35306;SDS011;21420;52.196;21.416;2023-06-14T00:56:36;10.20;;;7.50;;
35306;SDS011;21420;52.196;21.416;2023-06-14T00:59:03;8.80;;;7.40;;
35306;SDS011;21420;52.196;21.416;2023-06-14T01:01:30;8.00;;;7.00;;
35306;SDS011;21420;52.196;21.416;2023-06-14T01:04:00;8.00;;;7.20;;
35306;SDS011;21420;52.196;21.416;2023-06-14T01:11:59;7.90;;;6.50;;
35306;SDS011;21420;52.196;21.416;2023-06-14T01:14:32;8.80;;;6.80;;
35306;SDS011;21420;52.196;21.416;2023-06-14T01:17:01;8.30;;;7.10;;
35306;SDS011;21420;52.196;21.416;2023-06-14T01:19:28;8.50;;;7.50;;
35306;SDS011;21420;52.196;21.416;2023-06-14T01:21:58;9.80;;;8.20;;
35306;SDS011;21420;52.196;21.416;2023-06-14T01:24:28;10.00;;;7.00;;
35306;SDS011;21420;52.196;21.416;2023-06-14T01:26:58;7.80;;;7.10;;
35306;SDS011;21420;52.196;21.416;2023-06-14T01:29:26;8.10;;;7.30;;
35306;SDS011;21420;52.196;21.416;2023-06-14T01:31:59;9.00;;;6.90;;
35306;SDS011;21420;52.196;21.416;2023-06-14T01:34:29;11.10;;;7.70;;
35306;SDS011;21420;52.196;21.416;2023-06-14T01:36:56;8.80;;;7.90;;
35306;SDS011;21420;52.196;21.416;2023-06-14T01:39:26;9.60;;;7.90;;
35306;SDS011;21420;52.196;21.416;2023-06-14T01:41:54;9.30;;;7.70;;
35306;SDS011;21420;52.196;21.416;2023-06-14T01:44:21;9.50;;;7.50;;
35306;SDS011;21420;52.196;21.416;2023-06-14T01:46:49;7.80;;;7.00;;
35306;SDS011;21420;52.196;21.416;2023-06-14T01:49:16;9.20;;;8.30;;
35306;SDS011;21420;52.196;21.416;2023-06-14T01:51:43;8.70;;;7.80;;
35306;SDS011;21420;52.196;21.416;2023-06-14T01:54:09;10.30;;;9.10;;
35306;SDS011;21420;52.196;21.416;2023-06-14T01:56:37;9.10;;;8.10;;
35306;SDS011;21420;52.196;21.416;2023-06-14T01:59:04;8.90;;;7.60;;
35306;SDS011;21420;52.196;21.416;2023-06-14T02:01:32;14.10;;;8.10;;
35306;SDS011;21420;52.196;21.416;2023-06-14T02:04:01;10.50;;;7.70;;
35306;SDS011;21420;52.196;21.416;2023-06-14T02:06:28;9.60;;;8.30;;
35306;SDS011;21420;52.196;21.416;2023-06-14T02:08:54;8.90;;;7.90;;
35306;SDS011;21420;52.196;21.416;2023-06-14T02:11:21;10.20;;;8.30;;
35306;SDS011;21420;52.196;21.416;2023-06-14T02:13:49;8.20;;;7.30;;
35306;SDS011;21420;52.196;21.416;2023-06-14T02:16:47;9.20;;;8.10;;
35306;SDS011;21420;52.196;21.416;2023-06-14T02:19:18;10.60;;;8.00;;
35306;SDS011;21420;52.196;21.416;2023-06-14T02:21:46;8.80;;;7.80;;
35306;SDS011;21420;52.196;21.416;2023-06-14T02:24:13;9.90;;;8.10;;
35306;SDS011;21420;52.196;21.416;2023-06-14T02:26:40;9.40;;;8.10;;
35306;SDS011;21420;52.196;21.416;2023-06-14T02:29:11;8.90;;;7.90;;
35306;SDS011;21420;52.196;21.416;2023-06-14T02:31:41;10.20;;;8.30;;
35306;SDS011;21420;52.196;21.416;2023-06-14T02:34:08;9.50;;;7.80;;
35306;SDS011;21420;52.196;21.416;2023-06-14T02:36:36;9.00;;;8.10;;
35306;SDS011;21420;52.196;21.416;2023-06-14T02:39:08;11.30;;;8.80;;
35306;SDS011;21420;52.196;21.416;2023-06-14T02:41:37;9.90;;;8.40;;
35306;SDS011;21420;52.196;21.416;2023-06-14T02:44:04;9.80;;;8.40;;
35306;SDS011;21420;52.196;21.416;2023-06-14T02:46:31;10.10;;;8.00;;
35306;SDS011;21420;52.196;21.416;2023-06-14T02:48:58;8.70;;;7.80;;
35306;SDS011;21420;52.196;21.416;2023-06-14T02:51:26;8.90;;;8.00;;
35306;SDS011;21420;52.196;21.416;2023-06-14T02:53:52;8.60;;;7.70;;
35306;SDS011;21420;52.196;21.416;2023-06-14T02:56:19;10.50;;;8.70;;
35306;SDS011;21420;52.196;21.416;2023-06-14T02:58:46;12.40;;;8.40;;
35306;SDS011;21420;52.196;21.416;2023-06-14T03:01:16;10.30;;;7.70;;
35306;SDS011;21420;52.196;21.416;2023-06-14T03:03:43;8.80;;;7.90;;
35306;SDS011;21420;52.196;21.416;2023-06-14T03:06:10;10.20;;;7.90;;
35306;SDS011;21420;52.196;21.416;2023-06-14T03:08:40;9.90;;;8.00;;
35306;SDS011;21420;52.196;21.416;2023-06-14T03:11:11;9.10;;;7.40;;
35306;SDS011;21420;52.196;21.416;2023-06-14T03:13:38;8.50;;;7.60;;
35306;SDS011;21420;52.196;21.416;2023-06-14T03:16:07;9.80;;;8.60;;
35306;SDS011;21420;52.196;21.416;2023-06-14T03:18:36;9.40;;;8.50;;
35306;SDS011;21420;52.196;21.416;2023-06-14T03:21:04;10.50;;;7.90;;
35306;SDS011;21420;52.196;21.416;2023-06-14T03:23:32;11.20;;;8.00;;
35306;SDS011;21420;52.196;21.416;2023-06-14T03:26:00;9.60;;;7.40;;
35306;SDS011;21420;52.196;21.416;2023-06-14T03:28:27;12.00;;;7.40;;
35306;SDS011;21420;52.196;21.416;2023-06-14T03:30:54;8.40;;;7.40;;
35306;SDS011;21420;52.196;21.416;2023-06-14T03:35:52;10.10;;;8.00;;
35306;SDS011;21420;52.196;21.416;2023-06-14T03:38:19;9.40;;;8.00;;
35306;SDS011;21420;52.196;21.416;2023-06-14T03:40:45;9.30;;;7.70;;
35306;SDS011;21420;52.196;21.416;2023-06-14T03:43:13;9.80;;;8.60;;
35306;SDS011;21420;52.196;21.416;2023-06-14T03:45:40;10.20;;;8.00;;
35306;SDS011;21420;52.196;21.416;2023-06-14T03:48:08;11.40;;;8.50;;
35306;SDS011;21420;52.196;21.416;2023-06-14T03:50:36;10.20;;;7.40;;
35306;SDS011;21420;52.196;21.416;2023-06-14T03:53:06;9.50;;;7.90;;
35306;SDS011;21420;52.196;21.416;2023-06-14T03:55:33;9.80;;;8.00;;
35306;SDS011;21420;52.196;21.416;2023-06-14T03:58:04;9.00;;;7.90;;
35306;SDS011;21420;52.196;21.416;2023-06-14T04:00:31;10.60;;;7.50;;
35306;SDS011;21420;52.196;21.416;2023-06-14T04:02:58;11.60;;;8.90;;
35306;SDS011;21420;52.196;21.416;2023-06-14T04:05:25;12.30;;;8.30;;
35306;SDS011;21420;52.196;21.416;2023-06-14T04:07:54;9.30;;;8.00;;
35306;SDS011;21420;52.196;21.416;2023-06-14T04:10:22;8.50;;;7.40;;
35306;SDS011;21420;52.196;21.416;2023-06-14T04:12:49;11.10;;;8.20;;
35306;SDS011;21420;52.196;21.416;2023-06-14T04:15:17;9.40;;;8.00;;
35306;SDS011;21420;52.196;21.416;2023-06-14T04:17:50;10.70;;;9.60;;
35306;SDS011;21420;52.196;21.416;2023-06-14T04:20:19;10.30;;;9.10;;
35306;SDS011;21420;52.196;21.416;2023-06-14T04:22:46;9.40;;;8.50;;
35306;SDS011;21420;52.196;21.416;2023-06-14T04:25:13;9.40;;;8.00;;
35306;SDS011;21420;52.196;21.416;2023-06-14T04:27:41;10.10;;;7.80;;
35306;SDS011;21420;52.196;21.416;2023-06-14T04:30:09;8.80;;;7.90;;
35306;SDS011;21420;52.196;21.416;2023-06-14T04:32:41;9.60;;;8.00;;
35306;SDS011;21420;52.196;21.416;2023-06-14T04:35:11;9.70;;;8.70;;
35306;SDS011;21420;52.196;21.416;2023-06-14T04:37:40;11.20;;;8.70;;
35306;SDS011;21420;52.196;21.416;2023-06-14T04:40:09;11.80;;;9.00;;
35306;SDS011;21420;52.196;21.416;2023-06-14T04:42:39;13.20;;;7.80;;
35306;SDS011;21420;52.196;21.416;2023-06-14T04:45:09;8.50;;;7.60;;
35306;SDS011;21420;52.196;21.416;2023-06-14T04:47:38;10.40;;;7.80;;
35306;SDS011;21420;52.196;21.416;2023-06-14T04:50:06;11.10;;;8.10;;
35306;SDS011;21420;52.196;21.416;2023-06-14T04:52:32;10.40;;;8.20;;
35306;SDS011;21420;52.196;21.416;2023-06-14T04:54:59;10.00;;;8.60;;
35306;SDS011;21420;52.196;21.416;2023-06-14T04:57:28;9.20;;;8.30;;
35306;SDS011;21420;52.196;21.416;2023-06-14T04:59:57;11.90;;;8.30;;
35306;SDS011;21420;52.196;21.416;2023-06-14T05:02:24;10.30;;;7.50;;
35306;SDS011;21420;52.196;21.416;2023-06-14T05:04:53;8.20;;;7.30;;
35306;SDS011;21420;52.196;21.416;2023-06-14T05:07:21;9.20;;;8.20;;
35306;SDS011;21420;52.196;21.416;2023-06-14T05:09:51;11.30;;;8.30;;
35306;SDS011;21420;52.196;21.416;2023-06-14T05:12:17;9.20;;;8.30;;
35306;SDS011;21420;52.196;21.416;2023-06-14T05:14:45;9.40;;;8.60;;
35306;SDS011;21420;52.196;21.416;2023-06-14T05:17:13;9.10;;;8.00;;
35306;SDS011;21420;52.196;21.416;2023-06-14T05:19:40;12.40;;;8.80;;
35306;SDS011;21420;52.196;21.416;2023-06-14T05:22:07;9.20;;;8.00;;
35306;SDS011;21420;52.196;21.416;2023-06-14T05:24:39;9.00;;;8.20;;
35306;SDS011;21420;52.196;21.416;2023-06-14T05:27:05;9.00;;;7.80;;
35306;SDS011;21420;52.196;21.416;2023-06-14T05:29:33;9.30;;;8.50;;
35306;SDS011;21420;52.196;21.416;2023-06-14T05:32:00;10.00;;;9.00;;
35306;SDS011;21420;52.196;21.416;2023-06-14T05:34:27;11.50;;;9.80;;
35306;SDS011;21420;52.196;21.416;2023-06-14T05:36:54;13.30;;;9.40;;
35306;SDS011;21420;52.196;21.416;2023-06-14T05:39:22;11.30;;;8.80;;
35306;SDS011;21420;52.196;21.416;2023-06-14T05:41:50;10.80;;;8.90;;
35306;SDS011;21420;52.196;21.416;2023-06-14T05:44:17;9.10;;;8.10;;
35306;SDS011;21420;52.196;21.416;2023-06-14T05:46:43;10.10;;;9.10;;
35306;SDS011;21420;52.196;21.416;2023-06-14T05:49:10;14.00;;;10.00;;
35306;SDS011;21420;52.196;21.416;2023-06-14T05:51:38;9.90;;;8.50;;
35306;SDS011;21420;52.196;21.416;2023-06-14T05:54:05;11.40;;;8.40;;
35306;SDS011;21420;52.196;21.416;2023-06-14T05:56:31;9.20;;;8.20;;
35306;SDS011;21420;52.196;21.416;2023-06-14T05:58:58;10.20;;;9.20;;
35306;SDS011;21420;52.196;21.416;2023-06-14T06:01:27;12.50;;;9.00;;
35306;SDS011;21420;52.196;21.416;2023-06-14T06:03:54;10.00;;;8.90;;
35306;SDS011;21420;52.196;21.416;2023-06-14T06:06:21;11.00;;;8.90;;
35306;SDS011;21420;52.196;21.416;2023-06-14T06:08:47;8.30;;;7.30;;
35306;SDS011;21420;52.196;21.416;2023-06-14T06:11:14;9.20;;;7.40;;
35306;SDS011;21420;52.196;21.416;2023-06-14T06:13:41;9.30;;;7.60;;
35306;SDS011;21420;52.196;21.416;2023-06-14T06:16:08;13.60;;;6.80;;
35306;SDS011;21420;52.196;21.416;2023-06-14T06:18:35;10.00;;;7.30;;
35306;SDS011;21420;52.196;21.416;2023-06-14T06:21:03;11.60;;;8.30;;
35306;SDS011;21420;52.196;21.416;2023-06-14T06:23:31;10.20;;;8.60;;
35306;SDS011;21420;52.196;21.416;2023-06-14T06:25:58;10.40;;;9.00;;
35306;SDS011;21420;52.196;21.416;2023-06-14T06:28:24;9.20;;;8.20;;
35306;SDS011;21420;52.196;21.416;2023-06-14T06:30:51;9.00;;;8.10;;
35306;SDS011;21420;52.196;21.416;2023-06-14T06:33:18;12.50;;;7.30;;
35306;SDS011;21420;52.196;21.416;2023-06-14T06:35:45;9.80;;;8.00;;
35306;SDS011;21420;52.196;21.416;2023-06-14T06:38:11;9.20;;;8.00;;
35306;SDS011;21420;52.196;21.416;2023-06-14T06:40:38;8.20;;;7.40;;
35306;SDS011;21420;52.196;21.416;2023-06-14T06:43:05;9.60;;;7.60;;
35306;SDS011;21420;52.196;21.416;2023-06-14T06:45:39;9.20;;;7.10;;
35306;SDS011;21420;52.196;21.416;2023-06-14T06:48:06;9.90;;;8.00;;
35306;SDS011;21420;52.196;21.416;2023-06-14T06:50:33;12.10;;;6.90;;
35306;SDS011;21420;52.196;21.416;2023-06-14T06:52:59;8.70;;;6.80;;
35306;SDS011;21420;52.196;21.416;2023-06-14T06:55:26;8.90;;;6.60;;
35306;SDS011;21420;52.196;21.416;2023-06-14T06:57:53;9.30;;;6.80;;
35306;SDS011;21420;52.196;21.416;2023-06-14T07:00:20;9.60;;;7.40;;
35306;SDS011;21420;52.196;21.416;2023-06-14T07:02:47;7.80;;;7.00;;
35306;SDS011;21420;52.196;21.416;2023-06-14T07:05:14;7.60;;;6.90;;
35306;SDS011;21420;52.196;21.416;2023-06-14T07:07:42;8.30;;;6.00;;
35306;SDS011;21420;52.196;21.416;2023-06-14T07:10:08;7.40;;;6.60;;
35306;SDS011;21420;52.196;21.416;2023-06-14T07:12:35;7.60;;;6.30;;
35306;SDS011;21420;52.196;21.416;2023-06-14T07:15:09;8.60;;;6.10;;
35306;SDS011;21420;52.196;21.416;2023-06-14T07:17:36;10.20;;;6.10;;
35306;SDS011;21420;52.196;21.416;2023-06-14T07:20:04;7.10;;;6.40;;
35306;SDS011;21420;52.196;21.416;2023-06-14T07:22:51;10.20;;;6.40;;
35306;SDS011;21420;52.196;21.416;2023-06-14T07:25:17;6.80;;;6.10;;
35306;SDS011;21420;52.196;21.416;2023-06-14T07:27:46;7.40;;;6.50;;
35306;SDS011;21420;52.196;21.416;2023-06-14T07:30:13;7.30;;;6.20;;
35306;SDS011;21420;52.196;21.416;2023-06-14T07:32:40;8.10;;;6.10;;
35306;SDS011;21420;52.196;21.416;2023-06-14T07:35:07;7.70;;;6.60;;
35306;SDS011;21420;52.196;21.416;2023-06-14T07:37:34;9.60;;;6.90;;
35306;SDS011;21420;52.196;21.416;2023-06-14T07:40:01;8.60;;;6.70;;
35306;SDS011;21420;52.196;21.416;2023-06-14T07:42:34;8.00;;;7.20;;
35306;SDS011;21420;52.196;21.416;2023-06-14T07:45:02;11.20;;;8.30;;
35306;SDS011;21420;52.196;21.416;2023-06-14T07:47:30;9.00;;;7.10;;
35306;SDS011;21420;52.196;21.416;2023-06-14T07:49:57;10.50;;;8.20;;
35306;SDS011;21420;52.196;21.416;2023-06-14T07:52:23;9.30;;;7.50;;
35306;SDS011;21420;52.196;21.416;2023-06-14T07:54:51;7.90;;;7.00;;
35306;SDS011;21420;52.196;21.416;2023-06-14T07:57:18;10.40;;;7.20;;
35306;SDS011;21420;52.196;21.416;2023-06-14T07:59:46;8.80;;;7.00;;
35306;SDS011;21420;52.196;21.416;2023-06-14T08:02:13;8.00;;;7.10;;
35306;SDS011;21420;52.196;21.416;2023-06-14T08:04:41;6.70;;;6.00;;
35306;SDS011;21420;52.196;21.416;2023-06-14T08:07:08;8.90;;;5.90;;
35306;SDS011;21420;52.196;21.416;2023-06-14T08:09:35;6.80;;;6.20;;
35306;SDS011;21420;52.196;21.416;2023-06-14T08:12:05;8.10;;;7.20;;
35306;SDS011;21420;52.196;21.416;2023-06-14T08:14:39;7.80;;;6.70;;
35306;SDS011;21420;52.196;21.416;2023-06-14T08:17:06;9.30;;;5.80;;
35306;SDS011;21420;52.196;21.416;2023-06-14T08:19:33;9.10;;;6.40;;
35306;SDS011;21420;52.196;21.416;2023-06-14T08:22:00;11.30;;;6.30;;
35306;SDS011;21420;52.196;21.416;2023-06-14T08:24:26;10.30;;;6.80;;
35306;SDS011;21420;52.196;21.416;2023-06-14T08:26:54;9.80;;;6.70;;
35306;SDS011;21420;52.196;21.416;2023-06-14T08:29:20;7.10;;;6.30;;
35306;SDS011;21420;52.196;21.416;2023-06-14T08:31:47;8.30;;;6.60;;
35306;SDS011;21420;52.196;21.416;2023-06-14T08:34:14;7.70;;;6.90;;
35306;SDS011;21420;52.196;21.416;2023-06-14T08:36:41;9.20;;;7.00;;
35306;SDS011;21420;52.196;21.416;2023-06-14T08:39:08;7.70;;;6.10;;
35306;SDS011;21420;52.196;21.416;2023-06-14T08:41:35;9.90;;;7.40;;
35306;SDS011;21420;52.196;21.416;2023-06-14T08:44:02;7.70;;;6.90;;
35306;SDS011;21420;52.196;21.416;2023-06-14T08:46:32;12.90;;;7.20;;
35306;SDS011;21420;52.196;21.416;2023-06-14T08:49:01;11.20;;;7.80;;
35306;SDS011;21420;52.196;21.416;2023-06-14T08:51:30;9.20;;;7.90;;
35306;SDS011;21420;52.196;21.416;2023-06-14T08:54:03;12.20;;;7.60;;
35306;SDS011;21420;52.196;21.416;2023-06-14T08:56:31;9.10;;;7.40;;
35306;SDS011;21420;52.196;21.416;2023-06-14T08:58:58;8.30;;;7.40;;
35306;SDS011;21420;52.196;21.416;2023-06-14T09:01:36;9.60;;;6.80;;
35306;SDS011;21420;52.196;21.416;2023-06-14T09:04:03;8.80;;;7.40;;
35306;SDS011;21420;52.196;21.416;2023-06-14T09:06:33;8.40;;;7.60;;
35306;SDS011;21420;52.196;21.416;2023-06-14T09:09:00;8.20;;;7.30;;
35306;SDS011;21420;52.196;21.416;2023-06-14T09:11:28;10.10;;;7.70;;
35306;SDS011;21420;52.196;21.416;2023-06-14T09:13:57;9.10;;;7.20;;
35306;SDS011;21420;52.196;21.416;2023-06-14T09:16:23;10.20;;;6.90;;
35306;SDS011;21420;52.196;21.416;2023-06-14T09:18:53;7.70;;;6.80;;
35306;SDS011;21420;52.196;21.416;2023-06-14T09:21:20;7.60;;;6.90;;
35306;SDS011;21420;52.196;21.416;2023-06-14T09:23:48;7.90;;;6.30;;
35306;SDS011;21420;52.196;21.416;2023-06-14T09:26:15;9.90;;;6.80;;
35306;SDS011;21420;52.196;21.416;2023-06-14T09:28:44;8.30;;;7.50;;
35306;SDS011;21420;52.196;21.416;2023-06-14T09:31:12;7.80;;;6.10;;
35306;SDS011;21420;52.196;21.416;2023-06-14T09:33:44;7.70;;;6.40;;
35306;SDS011;21420;52.196;21.416;2023-06-14T09:36:18;7.70;;;5.60;;
35306;SDS011;21420;52.196;21.416;2023-06-14T09:38:52;6.20;;;5.50;;
35306;SDS011;21420;52.196;21.416;2023-06-14T09:41:36;6.60;;;5.80;;
35306;SDS011;21420;52.196;21.416;2023-06-14T09:44:05;5.90;;;4.70;;
35306;SDS011;21420;52.196;21.416;2023-06-14T09:46:38;8.10;;;5.10;;
35306;SDS011;21420;52.196;21.416;2023-06-14T09:49:05;6.20;;;5.00;;
35306;SDS011;21420;52.196;21.416;2023-06-14T09:51:33;5.40;;;4.20;;
35306;SDS011;21420;52.196;21.416;2023-06-14T09:54:03;5.50;;;4.70;;
35306;SDS011;21420;52.196;21.416;2023-06-14T09:56:44;5.80;;;4.90;;
35306;SDS011;21420;52.196;21.416;2023-06-14T10:01:43;7.00;;;4.20;;
35306;SDS011;21420;52.196;21.416;2023-06-14T10:04:12;7.10;;;4.90;;
35306;SDS011;21420;52.196;21.416;2023-06-14T10:06:42;5.50;;;4.80;;
35306;SDS011;21420;52.196;21.416;2023-06-14T10:09:12;6.40;;;5.40;;
35306;SDS011;21420;52.196;21.416;2023-06-14T10:11:40;7.50;;;4.70;;
35306;SDS011;21420;52.196;21.416;2023-06-14T10:14:11;6.30;;;4.90;;
35306;SDS011;21420;52.196;21.416;2023-06-14T10:19:46;5.50;;;4.70;;
35306;SDS011;21420;52.196;21.416;2023-06-14T10:22:21;7.50;;;5.20;;
35306;SDS011;21420;52.196;21.416;2023-06-14T10:24:56;5.50;;;5.00;;
35306;SDS011;21420;52.196;21.416;2023-06-14T10:27:23;8.00;;;4.50;;
35306;SDS011;21420;52.196;21.416;2023-06-14T10:30:01;7.70;;;5.00;;
35306;SDS011;21420;52.196;21.416;2023-06-14T10:32:29;6.40;;;4.40;;
35306;SDS011;21420;52.196;21.416;2023-06-14T10:34:56;7.10;;;4.60;;
35306;SDS011;21420;52.196;21.416;2023-06-14T10:37:33;5.70;;;4.70;;
35306;SDS011;21420;52.196;21.416;2023-06-14T10:40:00;6.80;;;4.70;;
35306;SDS011;21420;52.196;21.416;2023-06-14T10:42:27;7.20;;;4.30;;
35306;SDS011;21420;52.196;21.416;2023-06-14T10:44:57;5.30;;;4.30;;
35306;SDS011;21420;52.196;21.416;2023-06-14T10:47:31;5.30;;;4.80;;
35306;SDS011;21420;52.196;21.416;2023-06-14T10:52:28;6.70;;;5.70;;
35306;SDS011;21420;52.196;21.416;2023-06-14T10:55:06;5.20;;;4.70;;
35306;SDS011;21420;52.196;21.416;2023-06-14T10:57:39;6.40;;;4.30;;
35306;SDS011;21420;52.196;21.416;2023-06-14T11:00:10;7.10;;;3.90;;
35306;SDS011;21420;52.196;21.416;2023-06-14T11:05:31;5.00;;;4.20;;
35306;SDS011;21420;52.196;21.416;2023-06-14T11:10:59;6.80;;;4.00;;
35306;SDS011;21420;52.196;21.416;2023-06-14T11:13:27;5.40;;;3.70;;
35306;SDS011;21420;52.196;21.416;2023-06-14T11:15:57;4.60;;;3.20;;
35306;SDS011;21420;52.196;21.416;2023-06-14T11:18:25;6.10;;;3.60;;
35306;SDS011;21420;52.196;21.416;2023-06-14T11:20:54;3.10;;;2.80;;
35306;SDS011;21420;52.196;21.416;2023-06-14T11:23:21;3.60;;;2.70;;
35306;SDS011;21420;52.196;21.416;2023-06-14T11:25:52;4.20;;;2.50;;
35306;SDS011;21420;52.196;21.416;2023-06-14T11:28:19;2.30;;;2.10;;
35306;SDS011;21420;52.196;21.416;2023-06-14T11:30:48;7.20;;;2.20;;
35306;SDS011;21420;52.196;21.416;2023-06-14T11:33:18;3.70;;;1.80;;
35306;SDS011;21420;52.196;21.416;2023-06-14T11:35:45;2.40;;;2.20;;
35306;SDS011;21420;52.196;21.416;2023-06-14T11:38:12;2.60;;;2.10;;
35306;SDS011;21420;52.196;21.416;2023-06-14T11:40:39;5.50;;;2.10;;
35306;SDS011;21420;52.196;21.416;2023-06-14T11:43:06;2.50;;;2.00;;
35306;SDS011;21420;52.196;21.416;2023-06-14T11:45:33;3.40;;;2.00;;
35306;SDS011;21420;52.196;21.416;2023-06-14T11:48:00;4.00;;;2.00;;
35306;SDS011;21420;52.196;21.416;2023-06-14T11:50:27;5.20;;;2.30;;
35306;SDS011;21420;52.196;21.416;2023-06-14T11:52:55;5.80;;;2.20;;
35306;SDS011;21420;52.196;21.416;2023-06-14T11:55:23;3.70;;;2.10;;
35306;SDS011;21420;52.196;21.416;2023-06-14T11:57:50;3.80;;;2.70;;
35306;SDS011;21420;52.196;21.416;2023-06-14T12:00:18;5.20;;;2.40;;
35306;SDS011;21420;52.196;21.416;2023-06-14T12:02:53;4.20;;;2.30;;
35306;SDS011;21420;52.196;21.416;2023-06-14T12:05:24;3.90;;;2.10;;
35306;SDS011;21420;52.196;21.416;2023-06-14T12:07:58;2.50;;;1.60;;
35306;SDS011;21420;52.196;21.416;2023-06-14T12:10:27;3.90;;;2.10;;
35306;SDS011;21420;52.196;21.416;2023-06-14T12:12:58;3.50;;;1.70;;
35306;SDS011;21420;52.196;21.416;2023-06-14T12:15:29;6.70;;;2.00;;
35306;SDS011;21420;52.196;21.416;2023-06-14T12:17:57;4.40;;;2.30;;
35306;SDS011;21420;52.196;21.416;2023-06-14T12:20:28;3.40;;;1.90;;
35306;SDS011;21420;52.196;21.416;2023-06-14T12:22:57;2.70;;;1.40;;
35306;SDS011;21420;52.196;21.416;2023-06-14T12:27:54;3.10;;;1.90;;
35306;SDS011;21420;52.196;21.416;2023-06-14T12:30:21;5.20;;;2.30;;
35306;SDS011;21420;52.196;21.416;2023-06-14T12:32:48;3.10;;;1.80;;
35306;SDS011;21420;52.196;21.416;2023-06-14T12:35:15;3.30;;;2.00;;
35306;SDS011;21420;52.196;21.416;2023-06-14T12:37:42;5.90;;;2.00;;
35306;SDS011;21420;52.196;21.416;2023-06-14T12:40:09;2.30;;;1.70;;
35306;SDS011;21420;52.196;21.416;2023-06-14T12:42:38;3.70;;;1.90;;
35306;SDS011;21420;52.196;21.416;2023-06-14T12:45:05;3.90;;;1.90;;
35306;SDS011;21420;52.196;21.416;2023-06-14T12:47:32;2.70;;;1.80;;
35306;SDS011;21420;52.196;21.416;2023-06-14T12:49:59;2.40;;;1.70;;
35306;SDS011;21420;52.196;21.416;2023-06-14T12:52:26;2.20;;;1.80;;
35306;SDS011;21420;52.196;21.416;2023-06-14T12:54:53;6.00;;;2.70;;
35306;SDS011;21420;52.196;21.416;2023-06-14T12:57:20;5.50;;;2.00;;
35306;SDS011;21420;52.196;21.416;2023-06-14T12:59:47;2.80;;;2.00;;
35306;SDS011;21420;52.196;21.416;2023-06-14T13:02:15;5.70;;;2.30;;
35306;SDS011;21420;52.196;21.416;2023-06-14T13:04:44;6.50;;;3.10;;
35306;SDS011;21420;52.196;21.416;2023-06-14T13:07:11;10.90;;;4.20;;
35306;SDS011;21420;52.196;21.416;2023-06-14T13:09:37;2.50;;;2.30;;
35306;SDS011;21420;52.196;21.416;2023-06-14T13:12:04;4.10;;;2.40;;
35306;SDS011;21420;52.196;21.416;2023-06-14T13:14:32;4.00;;;2.40;;
35306;SDS011;21420;52.196;21.416;2023-06-14T13:16:59;5.90;;;2.50;;
35306;SDS011;21420;52.196;21.416;2023-06-14T13:19:26;2.80;;;2.50;;
35306;SDS011;21420;52.196;21.416;2023-06-14T13:21:52;4.80;;;3.10;;
35306;SDS011;21420;52.196;21.416;2023-06-14T13:24:19;9.00;;;2.90;;
35306;SDS011;21420;52.196;21.416;2023-06-14T13:26:46;5.70;;;2.80;;
35306;SDS011;21420;52.196;21.416;2023-06-14T13:29:13;3.60;;;2.40;;
35306;SDS011;21420;52.196;21.416;2023-06-14T13:31:40;4.90;;;2.60;;
35306;SDS011;21420;52.196;21.416;2023-06-14T13:34:06;3.60;;;2.80;;
35306;SDS011;21420;52.196;21.416;2023-06-14T13:36:33;7.40;;;3.20;;
35306;SDS011;21420;52.196;21.416;2023-06-14T13:39:00;5.60;;;2.50;;
35306;SDS011;21420;52.196;21.416;2023-06-14T13:41:28;5.60;;;2.30;;
35306;SDS011;21420;52.196;21.416;2023-06-14T13:44:00;3.00;;;2.50;;
35306;SDS011;21420;52.196;21.416;2023-06-14T13:46:30;3.90;;;2.70;;
35306;SDS011;21420;52.196;21.416;2023-06-14T13:48:58;7.00;;;2.70;;
35306;SDS011;21420;52.196;21.416;2023-06-14T13:51:25;4.90;;;2.70;;
35306;SDS011;21420;52.196;21.416;2023-06-14T13:53:53;9.60;;;2.60;;
35306;SDS011;21420;52.196;21.416;2023-06-14T13:56:21;5.30;;;2.50;;
35306;SDS011;21420;52.196;21.416;2023-06-14T14:03:48;7.30;;;3.20;;
35306;SDS011;21420;52.196;21.416;2023-06-14T14:06:16;8.10;;;3.30;;
35306;SDS011;21420;52.196;21.416;2023-06-14T14:08:43;3.40;;;2.90;;
35306;SDS011;21420;52.196;21.416;2023-06-14T14:11:10;6.80;;;3.30;;
35306;SDS011;21420;52.196;21.416;2023-06-14T14:13:37;4.40;;;3.40;;
35306;SDS011;21420;52.196;21.416;2023-06-14T14:16:06;6.70;;;3.80;;
35306;SDS011;21420;52.196;21.416;2023-06-14T14:18:33;4.40;;;3.70;;
35306;SDS011;21420;52.196;21.416;2023-06-14T14:21:00;4.10;;;3.50;;
35306;SDS011;21420;52.196;21.416;2023-06-14T14:23:28;7.30;;;4.40;;
35306;SDS011;21420;52.196;21.416;2023-06-14T14:25:56;6.70;;;4.00;;
35306;SDS011;21420;52.196;21.416;2023-06-14T14:28:23;6.30;;;3.40;;
35306;SDS011;21420;52.196;21.416;2023-06-14T14:30:49;4.60;;;3.90;;
35306;SDS011;21420;52.196;21.416;2023-06-14T14:33:16;6.00;;;3.70;;
35306;SDS011;21420;52.196;21.416;2023-06-14T14:35:44;8.50;;;3.90;;
35306;SDS011;21420;52.196;21.416;2023-06-14T14:38:15;4.30;;;4.00;;
35306;SDS011;21420;52.196;21.416;2023-06-14T14:40:43;8.00;;;4.10;;
35306;SDS011;21420;52.196;21.416;2023-06-14T14:43:11;4.60;;;3.80;;
35306;SDS011;21420;52.196;21.416;2023-06-14T14:45:38;5.10;;;4.50;;
35306;SDS011;21420;52.196;21.416;2023-06-14T14:48:05;10.50;;;8.10;;
35306;SDS011;21420;52.196;21.416;2023-06-14T14:50:32;8.20;;;6.70;;
35306;SDS011;21420;52.196;21.416;2023-06-14T14:53:00;10.00;;;6.60;;
35306;SDS011;21420;52.196;21.416;2023-06-14T14:55:27;7.40;;;5.40;;
35306;SDS011;21420;52.196;21.416;2023-06-14T14:57:54;6.50;;;5.90;;
35306;SDS011;21420;52.196;21.416;2023-06-14T15:00:22;10.40;;;8.40;;
35306;SDS011;21420;52.196;21.416;2023-06-14T15:02:48;7.90;;;6.30;;
35306;SDS011;21420;52.196;21.416;2023-06-14T15:05:16;8.90;;;6.80;;
35306;SDS011;21420;52.196;21.416;2023-06-14T15:07:42;19.50;;;16.60;;